Time;durP1;ratioP1;P1;durP2;ratioP2;P2;SDS_P1;SDS_P2;PMS_P1;PMS_P2;Temp;Humidity;BMP_temperature;BMP_pressure;BME280_temperature;BME280_humidity;BME280_pressure;Samples;Min_cycle;Max_cycle;Signal;HPM_P1;HPM_P2
2021/03/27 00:02:23;;;;;;;2.59;1.70;;;;;;;9.77;65.32;99165.06;2015328;77;21477;-64
2021/03/27 00:05:34;;;;;;;1.88;1.60;;;;;;;9.83;64.92;99170.22;2016791;80;20163;-64
2021/03/27 00:08:45;;;;;;;2.09;1.51;;;;;;;9.92;64.77;99178.81;2016893;80;20192;-65
2021/03/27 00:11:56;;;;;;;3.53;1.70;;;;;;;9.92;65.36;99173.63;2017435;80;20164;-65
2021/03/27 00:15:16;;;;;;;2.45;1.60;;;;;;;9.88;66.72;99166.75;2017480;80;20381;-65
2021/03/27 00:18:23;;;;;;;2.76;1.59;;;;;;;9.81;67.75;99165.03;2013565;80;20192;-65
2021/03/27 00:21:33;;;;;;;3.74;1.51;;;;;;;9.74;68.33;99168.53;2012368;80;20844;-65
2021/03/27 00:25:16;;;;;;;3.10;1.59;;;;;;;9.61;68.54;99162.53;2012031;80;20196;-65
2021/03/27 00:28:34;;;;;;;1.55;1.27;;;;;;;9.46;69.18;99169.50;2009982;80;20218;-65
2021/03/27 00:31:43;;;;;;;2.06;1.10;;;;;;;9.47;68.92;99173.81;2014360;80;20882;-65
2021/03/27 00:34:51;;;;;;;1.86;1.01;;;;;;;9.49;68.90;99187.63;2065227;69;20220;-65
2021/03/27 00:37:57;;;;;;;1.51;0.99;;;;;;;9.55;68.68;99204.06;2011879;80;20242;-65
2021/03/27 00:40:59;;;;;;;1.09;0.77;;;;;;;9.59;69.31;99216.13;2011802;80;20664;-65
2021/03/27 00:44:05;;;;;;;2.22;1.13;;;;;;;9.64;69.48;99237.69;2011306;80;20670;-64
2021/03/27 00:47:08;;;;;;;0.70;0.70;;;;;;;9.60;69.08;99259.31;2014900;77;23055;-65
2021/03/27 00:50:19;;;;;;;0.91;0.70;;;;;;;9.53;68.75;99269.72;2017511;80;20912;-65
2021/03/27 00:53:42;;;;;;;2.19;1.21;;;;;;;9.40;68.61;99281.84;2016607;80;20671;-65
2021/03/27 00:57:04;;;;;;;0.75;0.70;;;;;;;9.29;68.36;99281.84;2017643;80;20216;-64
2021/03/27 01:00:28;;;;;;;0.52;0.40;;;;;;;9.20;68.15;99286.19;2016417;80;20180;-65
2021/03/27 01:03:36;;;;;;;4.10;0.30;;;;;;;9.05;65.99;99292.22;2018183;80;20754;-65
2021/03/27 01:06:44;;;;;;;1.34;0.40;;;;;;;8.92;64.33;99300.84;2016609;80;20176;-64
2021/03/27 01:09:50;;;;;;;0.40;0.20;;;;;;;8.79;64.88;99305.13;2017161;80;20219;-65
2021/03/27 01:12:54;;;;;;;0.10;0.10;;;;;;;8.67;64.68;99321.53;2017040;80;20194;-64
2021/03/27 01:16:00;;;;;;;0.73;0.20;;;;;;;8.53;64.63;99341.31;2014070;77;22402;-64
2021/03/27 01:19:31;;;;;;;0.69;0.20;;;;;;;8.45;64.50;99362.00;2011847;80;20769;-64
2021/03/27 01:22:33;;;;;;;0.19;0.19;;;;;;;8.28;64.44;99386.91;2012489;80;20327;-64
2021/03/27 01:25:36;;;;;;;1.39;0.14;;;;;;;8.22;64.68;99401.53;2012158;80;20922;-64
2021/03/27 01:28:53;;;;;;;0.10;0.10;;;;;;;8.12;65.20;99398.91;2011920;80;20369;-64
2021/03/27 01:32:06;;;;;;;0.20;0.20;;;;;;;8.00;66.17;99392.78;2014385;77;20340;-65
2021/03/27 01:35:18;;;;;;;0.20;0.20;;;;;;;7.90;67.20;99381.53;2017100;80;20339;-65
2021/03/27 01:38:30;;;;;;;0.20;0.20;;;;;;;7.77;67.77;99401.28;2017366;80;20327;-65
2021/03/27 01:42:14;;;;;;;0.74;0.20;;;;;;;7.69;67.78;99389.13;2017058;80;20827;-64
2021/03/27 01:45:50;;;;;;;0.26;0.10;;;;;;;7.56;67.74;99414.91;2014646;77;23613;-64
2021/03/27 01:49:26;;;;;;;0.10;0.10;;;;;;;7.39;68.38;99428.53;2010925;80;20431;-64
2021/03/27 01:52:58;;;;;;;0.10;0.10;;;;;;;7.30;68.76;99436.16;2016977;80;20342;-64
2021/03/27 01:56:30;;;;;;;0.19;0.10;;;;;;;7.18;68.49;99431.75;2016483;80;20354;-64
2021/03/27 01:59:42;;;;;;;0.38;0.20;;;;;;;7.12;68.66;99444.59;2017011;80;20314;-65
2021/03/27 02:02:56;;;;;;;0.20;0.10;;;;;;;7.05;68.67;99455.72;2011064;77;22651;-65
2021/03/27 02:06:11;;;;;;;0.19;0.16;;;;;;;7.03;68.81;99460.88;2011292;80;20355;-64
2021/03/27 02:09:24;;;;;;;0.61;0.10;;;;;;;6.95;68.71;99472.81;2012040;80;20299;-64
2021/03/27 02:12:44;;;;;;;0.52;0.15;;;;;;;6.93;68.91;99484.84;2011528;80;20384;-65
2021/03/27 02:15:52;;;;;;;0.10;0.10;;;;;;;6.89;68.85;99494.28;2012238;77;20342;-65
2021/03/27 02:19:08;;;;;;;0.10;0.10;;;;;;;6.85;68.98;99496.81;2016472;80;20906;-65
2021/03/27 02:22:31;;;;;;;0.20;0.20;;;;;;;6.80;69.13;99503.59;2016928;80;20305;-64
2021/03/27 02:26:05;;;;;;;0.22;0.10;;;;;;;6.77;70.14;99514.75;2016408;80;20338;-65
2021/03/27 02:29:28;;;;;;;0.10;0.10;;;;;;;6.64;70.65;99510.28;2020292;80;20313;-64
2021/03/27 02:32:53;;;;;;;0.10;0.10;;;;;;;6.55;71.44;99526.50;2012338;77;20336;-65
2021/03/27 02:36:09;;;;;;;0.20;0.20;;;;;;;6.46;72.18;99540.97;2016943;80;20332;-65
2021/03/27 02:39:29;;;;;;;0.21;0.20;;;;;;;6.33;72.72;99545.13;2016942;80;20371;-65
2021/03/27 02:42:50;;;;;;;0.10;0.10;;;;;;;6.22;73.45;99554.38;2016106;80;20344;-65
2021/03/27 02:46:14;;;;;;;0.38;0.20;;;;;;;6.18;73.52;99550.91;2015495;77;20317;-64
2021/03/27 02:49:47;;;;;;;0.10;0.10;;;;;;;6.09;73.80;99560.19;2016813;80;20338;-65
2021/03/27 02:53:01;;;;;;;0.10;0.10;;;;;;;6.06;73.77;99564.44;2016821;80;20612;-64
2021/03/27 02:56:24;;;;;;;1.05;0.10;;;;;;;6.01;73.84;99576.41;2016297;80;20355;-64
2021/03/27 02:59:42;;;;;;;0.11;0.11;;;;;;;5.96;74.06;99582.31;2016546;80;20334;-64
2021/03/27 03:02:55;;;;;;;0.10;0.10;;;;;;;5.91;73.97;99573.63;2017271;78;20482;-64
2021/03/27 03:06:13;;;;;;;0.10;0.10;;;;;;;5.86;74.08;99588.13;2017675;80;20807;-64
2021/03/27 03:09:30;;;;;;;0.10;0.10;;;;;;;5.82;73.84;99594.06;2017590;80;20441;-64
2021/03/27 03:12:41;;;;;;;0.10;0.10;;;;;;;5.76;73.98;99593.13;2018546;80;20313;-64
2021/03/27 03:15:52;;;;;;;0.10;0.10;;;;;;;5.69;74.06;99601.56;2016671;77;21445;-64
2021/03/27 03:19:14;;;;;;;0.10;0.10;;;;;;;5.66;74.17;99619.53;2018186;80;20335;-64
2021/03/27 03:22:29;;;;;;;0.70;0.20;;;;;;;5.64;74.25;99616.06;2018310;80;20774;-64
2021/03/27 03:25:33;;;;;;;0.20;0.20;;;;;;;5.63;74.33;99616.91;2019994;80;20358;-64
2021/03/27 03:29:02;;;;;;;0.20;0.20;;;;;;;5.60;74.50;99618.56;2017978;80;20337;-64
2021/03/27 03:32:24;;;;;;;0.93;0.20;;;;;;;5.62;74.44;99624.63;2017544;78;21741;-64
2021/03/27 03:35:43;;;;;;;0.39;0.20;;;;;;;5.58;74.36;99640.84;2022222;80;20339;-64
2021/03/27 03:38:59;;;;;;;0.88;0.25;;;;;;;5.50;74.56;99644.97;2023253;80;20328;-64
2021/03/27 03:42:46;;;;;;;0.31;0.20;;;;;;;5.44;74.52;99661.19;2023155;80;20316;-64
2021/03/27 03:46:00;;;;;;;0.51;0.21;;;;;;;5.44;74.45;99667.19;2017885;77;21756;-64
2021/03/27 03:49:30;;;;;;;2.25;0.51;;;;;;;5.47;74.32;99671.53;2023393;80;20426;-64
2021/03/27 03:53:07;;;;;;;1.34;0.40;;;;;;;5.45;74.47;99680.94;2022315;80;20421;-64
2021/03/27 03:56:18;;;;;;;1.85;0.30;;;;;;;5.49;74.56;99690.47;2023426;80;20332;-64
2021/03/27 03:59:22;;;;;;;0.51;0.30;;;;;;;5.48;74.48;99686.16;2022308;80;20308;-64
2021/03/27 04:02:43;;;;;;;1.89;0.40;;;;;;;5.50;74.32;99697.34;2021653;78;24145;-64
2021/03/27 04:05:58;;;;;;;1.09;0.30;;;;;;;5.52;74.35;99694.78;2021453;80;20369;-64
2021/03/27 04:09:21;;;;;;;0.75;0.30;;;;;;;5.52;74.31;99708.53;2023328;80;20304;-64
2021/03/27 04:12:43;;;;;;;1.30;0.30;;;;;;;5.51;74.41;99703.38;2021822;80;20332;-64
2021/03/27 04:16:01;;;;;;;1.81;0.54;;;;;;;5.49;74.30;99713.63;2021316;77;20657;-64
2021/03/27 04:19:18;;;;;;;1.66;0.40;;;;;;;5.46;74.08;99718.72;2022704;80;20329;-64
2021/03/27 04:22:30;;;;;;;2.21;0.30;;;;;;;5.43;74.24;99719.53;2022410;80;20324;-64
2021/03/27 04:25:38;;;;;;;1.79;0.41;;;;;;;5.43;74.19;99723.81;2023168;80;20354;-64
2021/03/27 04:28:39;;;;;;;0.29;0.22;;;;;;;5.43;74.08;99739.25;2022252;80;20328;-64
2021/03/27 04:32:19;;;;;;;1.49;0.40;;;;;;;5.42;74.13;99735.81;2021788;78;22239;-64
2021/03/27 04:35:45;;;;;;;1.66;0.41;;;;;;;5.43;74.13;99739.25;2016975;80;20301;-64
2021/03/27 04:38:56;;;;;;;2.15;0.74;;;;;;;5.40;74.21;99750.38;2022640;80;20324;-64
2021/03/27 04:42:05;;;;;;;1.59;0.41;;;;;;;5.40;74.19;99755.53;2021821;80;20373;-64
2021/03/27 04:45:10;;;;;;;1.11;0.40;;;;;;;5.40;74.28;99768.41;2022159;80;20327;-64
2021/03/27 04:48:38;;;;;;;1.91;0.43;;;;;;;5.40;74.20;99773.56;2021642;78;20473;-65
2021/03/27 04:52:06;;;;;;;0.39;0.30;;;;;;;5.42;74.01;99769.28;2021369;80;20356;-64
2021/03/27 04:55:22;;;;;;;1.98;0.40;;;;;;;5.42;73.78;99784.75;2021919;80;20225;-64
2021/03/27 04:58:54;;;;;;;4.05;0.88;;;;;;;5.45;73.65;99783.94;2021534;80;20651;-64
2021/03/27 05:02:02;;;;;;;1.89;0.38;;;;;;;5.43;73.37;99799.34;2021718;77;22050;-64
2021/03/27 05:05:27;;;;;;;2.30;0.50;;;;;;;5.39;73.31;99792.41;2022524;80;20506;-64
2021/03/27 05:08:53;;;;;;;1.63;0.55;;;;;;;5.37;73.39;99819.81;2022304;80;20167;-65
2021/03/27 05:12:10;;;;;;;2.86;0.50;;;;;;;5.35;73.43;99816.31;2021776;80;20417;-64
2021/03/27 05:15:19;;;;;;;1.17;0.47;;;;;;;5.38;73.38;99812.94;2022057;77;20367;-65
2021/03/27 05:18:48;;;;;;;1.21;0.60;;;;;;;5.39;73.13;99825.88;2022430;80;20316;-64
2021/03/27 05:22:02;;;;;;;2.31;0.50;;;;;;;5.35;72.97;99821.47;2022522;80;20204;-64
2021/03/27 05:25:15;;;;;;;1.92;0.50;;;;;;;5.32;72.55;99842.00;2022261;80;20361;-64
2021/03/27 05:28:41;;;;;;;3.39;0.60;;;;;;;5.27;72.52;99845.31;2018744;80;20280;-64
2021/03/27 05:32:16;;;;;;;2.72;1.02;;;;;;;5.24;72.19;99851.25;2021649;77;21818;-64
2021/03/27 05:35:30;;;;;;;1.92;0.54;;;;;;;5.22;72.05;99863.22;2025368;80;20329;-64
2021/03/27 05:38:53;;;;;;;0.70;0.40;;;;;;;5.25;71.99;99867.56;2022254;80;21118;-64
2021/03/27 05:42:34;;;;;;;1.26;0.54;;;;;;;5.26;72.00;99870.19;2022489;80;20373;-64
2021/03/27 05:45:57;;;;;;;1.15;0.40;;;;;;;5.29;71.98;99885.69;2020895;77;20869;-63
2021/03/27 05:49:23;;;;;;;2.70;0.44;;;;;;;5.30;72.07;99882.28;2022209;80;20315;-64
2021/03/27 05:53:07;;;;;;;1.52;0.52;;;;;;;5.32;71.97;99890.91;2022104;80;20372;-64
2021/03/27 05:56:36;;;;;;;0.95;0.41;;;;;;;5.33;71.74;99884.06;2022848;80;20839;-64
2021/03/27 05:59:54;;;;;;;;;;;;;;;5.34;71.63;99896.97;2022279;80;20373;-64
2021/03/27 06:03:11;;;;;;;3.01;0.60;;;;;;;5.32;71.41;99903.78;2020215;80;20296;-64
2021/03/27 06:06:45;;;;;;;2.96;0.71;;;;;;;5.36;70.68;99895.31;2020226;80;21108;-64
2021/03/27 06:10:19;;;;;;;1.74;0.57;;;;;;;5.43;70.17;99912.66;2017001;80;20881;-64
2021/03/27 06:13:42;;;;;;;2.09;0.57;;;;;;;5.45;69.87;99913.56;2014762;80;20327;-64
2021/03/27 06:16:52;;;;;;;3.06;0.60;;;;;;;5.60;69.92;99927.66;2019116;77;21554;-64
2021/03/27 06:20:45;;;;;;;4.95;0.75;;;;;;;5.67;69.53;99927.84;2019346;80;21000;-64
2021/03/27 06:24:04;;;;;;;2.50;0.60;;;;;;;5.71;68.47;99928.75;2003360;80;20396;-64
2021/03/27 06:27:30;;;;;;;0.80;0.41;;;;;;;5.75;68.81;99933.19;2019734;80;20316;-64
2021/03/27 06:31:18;;;;;;;2.59;0.60;;;;;;;5.81;68.45;99955.63;2018269;77;20903;-64
2021/03/27 06:34:53;;;;;;;1.84;0.64;;;;;;;5.86;68.05;99954.91;2015477;80;20360;-63
2021/03/27 06:38:34;;;;;;;2.19;0.43;;;;;;;5.91;67.84;99961.06;2019436;80;20458;-63
2021/03/27 06:41:39;;;;;;;3.64;0.64;;;;;;;6.52;66.75;99975.34;2019511;80;20315;-63
2021/03/27 06:44:59;;;;;;;2.70;0.56;;;;;;;6.48;66.25;99973.53;2023067;79;20465;-63
2021/03/27 06:48:37;;;;;;;3.40;0.46;;;;;;;6.47;66.28;99978.66;2008292;77;20461;-66
2021/03/27 06:51:49;;;;;;;2.30;0.50;;;;;;;6.64;65.64;99973.00;2009427;80;20310;-65
2021/03/27 06:55:07;;;;;;;2.66;0.44;;;;;;;6.57;65.17;99981.44;2009277;80;20318;-65
2021/03/27 06:58:37;;;;;;;4.26;0.60;;;;;;;6.49;65.18;99977.84;2009206;80;20501;-65
2021/03/27 07:01:57;;;;;;;2.10;0.43;;;;;;;6.54;65.54;99981.38;2013581;77;20332;-69
2021/03/27 07:05:21;;;;;;;1.73;0.54;;;;;;;6.73;64.73;99979.19;2019832;80;20312;-67
2021/03/27 07:08:42;;;;;;;1.88;0.61;;;;;;;6.86;64.14;99981.19;2019370;80;20363;-66
2021/03/27 07:12:03;;;;;;;3.11;0.50;;;;;;;6.86;64.00;99973.44;2019618;80;20389;-66
2021/03/27 07:15:27;;;;;;;2.49;0.69;;;;;;;6.96;63.90;99975.34;2018970;80;20933;-68
2021/03/27 07:19:02;;;;;;;5.47;0.66;;;;;;;7.08;63.60;99972.13;2021061;80;20316;-69
2021/03/27 07:22:26;;;;;;;2.66;0.70;;;;;;;7.18;63.78;99989.53;2019573;80;20333;-67
2021/03/27 07:26:09;;;;;;;2.17;0.70;;;;;;;7.27;63.56;99992.31;2019196;80;20296;-66
2021/03/27 07:29:32;;;;;;;4.71;0.70;;;;;;;7.57;62.40;99990.28;2019757;80;20786;-66
2021/03/27 07:32:55;;;;;;;1.74;0.51;;;;;;;8.15;61.12;99998.09;2019160;77;20700;-67
2021/03/27 07:36:35;;;;;;;7.59;0.80;;;;;;;8.46;60.45;100005.50;2014135;80;20853;-66
2021/03/27 07:39:50;;;;;;;2.53;0.70;;;;;;;8.61;59.33;100015.16;2014261;80;20344;-64
2021/03/27 07:42:55;;;;;;;4.68;0.70;;;;;;;8.80;58.59;100003.34;2013089;80;20946;-64
2021/03/27 07:45:57;;;;;;;2.88;0.55;;;;;;;8.90;57.86;100015.53;2011829;77;21507;-64
2021/03/27 07:49:19;;;;;;;4.36;0.70;;;;;;;9.20;57.69;100016.75;2010052;80;20347;-65
2021/03/27 07:52:31;;;;;;;5.14;1.29;;;;;;;9.26;56.84;100037.53;2009126;80;20337;-65
2021/03/27 07:55:52;;;;;;;3.54;0.70;;;;;;;8.98;55.97;100033.78;2009126;80;20440;-67
2021/03/27 07:59:19;;;;;;;5.46;1.39;;;;;;;8.68;56.40;100034.25;2013234;80;20441;-66
2021/03/27 08:02:38;;;;;;;5.15;0.57;;;;;;;8.41;56.86;100045.94;2008399;77;21330;-64
2021/03/27 08:06:07;;;;;;;3.65;0.80;;;;;;;8.14;57.66;100050.66;2009101;80;20344;-64
2021/03/27 08:09:51;;;;;;;3.34;0.80;;;;;;;7.96;58.37;100063.31;2009495;80;20355;-64
2021/03/27 08:13:07;;;;;;;4.46;0.70;;;;;;;7.67;59.26;100061.06;2006088;80;20213;-65
2021/03/27 08:16:31;;;;;;;5.75;0.70;;;;;;;7.70;60.28;100065.41;2010439;77;20301;-66
2021/03/27 08:19:39;;;;;;;4.30;0.71;;;;;;;7.65;59.56;100070.50;2014462;80;20364;-65
2021/03/27 08:23:02;;;;;;;8.50;2.44;;;;;;;7.71;60.07;100072.31;2013260;80;20463;-65
2021/03/27 08:26:19;;;;;;;5.54;0.98;;;;;;;7.94;59.93;100072.75;2014509;80;20673;-65
2021/03/27 08:29:51;;;;;;;4.01;0.86;;;;;;;8.08;59.35;100082.47;2014841;80;20850;-65
2021/03/27 08:33:08;;;;;;;4.25;0.77;;;;;;;8.14;59.45;100084.28;2008255;78;22402;-66
2021/03/27 08:36:40;;;;;;;5.80;1.21;;;;;;;8.15;58.76;100084.31;2009527;80;20187;-65
2021/03/27 08:40:09;;;;;;;3.19;0.66;;;;;;;8.18;58.69;100094.69;2006453;80;21080;-65
2021/03/27 08:43:24;;;;;;;6.13;0.70;;;;;;;8.21;58.17;100088.72;2009699;80;20333;-65
2021/03/27 08:46:47;;;;;;;5.69;0.63;;;;;;;8.25;58.55;100093.06;2010964;77;21119;-66
2021/03/27 08:50:23;;;;;;;4.71;0.70;;;;;;;8.10;58.16;100087.69;2014699;80;20320;-65
2021/03/27 08:54:07;;;;;;;2.70;1.17;;;;;;;7.91;59.04;100114.06;2014706;80;20965;-65
2021/03/27 08:57:23;;;;;;;4.21;1.05;;;;;;;7.72;60.27;100105.97;2014400;80;20354;-65
2021/03/27 09:00:44;;;;;;;5.26;1.30;;;;;;;7.66;61.00;100121.34;2013699;78;23250;-67
2021/03/27 09:04:21;;;;;;;5.63;1.01;;;;;;;7.62;61.40;100124.72;2014851;80;20861;-68
2021/03/27 09:07:38;;;;;;;16.11;7.84;;;;;;;7.73;61.19;100125.81;2014626;80;20342;-68
2021/03/27 09:10:49;;;;;;;7.57;3.70;;;;;;;7.85;61.21;100112.22;2016512;80;20836;-67
2021/03/27 09:14:02;;;;;;;8.65;3.05;;;;;;;8.04;61.33;100121.19;2016725;80;20367;-68
2021/03/27 09:17:31;;;;;;;3.65;1.25;;;;;;;8.12;62.31;100122.19;2012014;77;20837;-68
2021/03/27 09:20:39;;;;;;;;;;;;;;;8.18;64.07;100128.34;2012038;80;20442;-68
2021/03/27 09:24:07;;;;;;;7.68;1.83;;;;;;;8.12;65.10;100128.25;2010639;80;20113;-68
2021/03/27 09:27:37;;;;;;;4.49;1.38;;;;;;;8.03;64.49;100129.78;2010582;80;20343;-68
2021/03/27 09:31:07;;;;;;;3.70;1.04;;;;;;;7.85;66.37;100144.13;2011735;77;20333;-68
2021/03/27 09:34:17;;;;;;;4.86;0.75;;;;;;;7.61;67.10;100155.72;2016296;80;20313;-66
2021/03/27 09:37:32;;;;;;;4.24;0.90;;;;;;;7.40;68.22;100161.31;2016552;80;20317;-66
2021/03/27 09:40:51;;;;;;;5.53;0.80;;;;;;;7.47;70.06;100158.00;2016767;80;20357;-66
2021/03/27 09:44:20;;;;;;;8.56;1.84;;;;;;;7.91;71.63;100158.91;2016578;80;20336;-66
2021/03/27 09:47:55;;;;;;;12.23;3.80;;;;;;;8.34;70.68;100160.53;2011848;77;20690;-66
2021/03/27 09:51:15;;;;;;;4.72;1.33;;;;;;;8.34;69.57;100172.63;2010981;80;20336;-66
2021/03/27 09:54:30;;;;;;;4.59;1.01;;;;;;;8.41;69.51;100179.63;2011355;80;20341;-66
2021/03/27 09:57:58;;;;;;;5.63;0.90;;;;;;;8.95;69.24;100177.03;2011337;80;20560;-65
2021/03/27 10:01:04;;;;;;;4.74;1.38;;;;;;;9.83;66.67;100181.63;2010832;77;20300;-66
2021/03/27 10:04:18;;;;;;;5.01;0.90;;;;;;;10.28;63.01;100178.69;2015875;80;20302;-66
2021/03/27 10:07:27;;;;;;;5.15;0.90;;;;;;;10.83;62.10;100164.44;2017135;80;20195;-66
2021/03/27 10:10:44;;;;;;;6.88;0.52;;;;;;;11.27;59.45;100174.22;2016736;80;20772;-66
2021/03/27 10:13:56;;;;;;;4.07;0.94;;;;;;;11.63;58.35;100154.44;2017282;80;20204;-66
2021/03/27 10:17:30;;;;;;;6.04;1.30;;;;;;;11.88;55.75;100164.09;2012229;77;20447;-66
2021/03/27 10:20:40;;;;;;;4.28;0.90;;;;;;;11.44;54.18;100167.38;2011413;80;20202;-66
2021/03/27 10:24:22;;;;;;;4.84;1.00;;;;;;;11.23;55.20;100156.00;2010748;80;20180;-66
2021/03/27 10:28:03;;;;;;;3.61;0.82;;;;;;;11.44;54.77;100159.56;2011461;80;20188;-66
2021/03/27 10:31:12;;;;;;;2.90;1.04;;;;;;;11.89;52.66;100157.16;2003071;77;20838;-66
2021/03/27 10:34:53;;;;;;;4.03;0.97;;;;;;;12.14;51.35;100165.88;2010752;80;20200;-66
2021/03/27 10:38:00;;;;;;;5.55;1.00;;;;;;;12.18;49.28;100178.91;1999948;80;20186;-66
2021/03/27 10:41:26;;;;;;;9.31;3.67;;;;;;;12.27;49.42;100150.28;2011817;80;20190;-66
2021/03/27 10:44:49;;;;;;;18.04;11.75;;;;;;;12.40;49.60;100165.06;2011379;80;20194;-66
2021/03/27 10:48:03;;;;;;;6.50;2.10;;;;;;;12.02;50.48;100167.59;2015292;78;20761;-67
2021/03/27 10:51:32;;;;;;;4.49;1.10;;;;;;;11.49;51.39;100177.81;2016173;80;20183;-66
2021/03/27 10:54:43;;;;;;;4.30;0.90;;;;;;;10.92;51.25;100175.72;2016700;80;20322;-66
2021/03/27 10:58:08;;;;;;;5.45;0.88;;;;;;;10.50;50.78;100184.94;2016711;80;20191;-66
2021/03/27 11:01:41;;;;;;;5.50;1.08;;;;;;;10.22;51.75;100199.38;2013958;77;20691;-66
2021/03/27 11:05:09;;;;;;;3.75;1.13;;;;;;;10.27;50.06;100203.78;2011613;80;20206;-66
2021/03/27 11:08:34;;;;;;;4.70;0.77;;;;;;;10.28;49.86;100197.72;2010900;80;20688;-66
2021/03/27 11:11:42;;;;;;;5.36;1.26;;;;;;;10.05;50.23;100212.13;2010048;80;20701;-66
2021/03/27 11:15:05;;;;;;;5.50;0.86;;;;;;;9.82;51.53;100208.44;2008933;80;20180;-66
2021/03/27 11:18:37;;;;;;;4.31;0.82;;;;;;;9.55;50.51;100196.88;2005048;77;20929;-66
2021/03/27 11:22:10;;;;;;;3.70;1.00;;;;;;;9.50;51.01;100200.25;2005093;80;21049;-66
2021/03/27 11:25:47;;;;;;;4.99;0.74;;;;;;;9.92;51.30;100194.72;2005240;80;20219;-66
2021/03/27 11:29:28;;;;;;;4.60;0.70;;;;;;;10.68;48.99;100211.06;1997188;80;20677;-66
2021/03/27 11:32:54;;;;;;;3.56;1.01;;;;;;;11.50;45.94;100197.75;2013188;77;21815;-65
2021/03/27 11:36:17;;;;;;;3.25;0.89;;;;;;;12.10;42.49;100191.91;2015407;80;20160;-66
2021/03/27 11:39:42;;;;;;;3.99;0.90;;;;;;;12.46;42.52;100191.97;2015908;80;20197;-67
2021/03/27 11:43:15;;;;;;;2.04;0.80;;;;;;;12.85;40.34;100188.50;2015717;80;20240;-66
2021/03/27 11:46:23;;;;;;;4.54;1.01;;;;;;;12.61;39.78;100210.22;2012577;77;21599;-68
2021/03/27 11:49:39;;;;;;;4.14;0.97;;;;;;;12.17;40.40;100210.16;2011215;80;20192;-66
2021/03/27 11:53:07;;;;;;;2.38;0.89;;;;;;;11.78;41.29;100199.63;2010711;80;20218;-66
2021/03/27 11:56:27;;;;;;;3.89;0.80;;;;;;;11.36;42.43;100207.22;2010176;80;20198;-66
2021/03/27 12:03:16;;;;;;;2.71;0.77;;;;;;;11.98;41.35;100202.28;2009836;77;20188;-66
2021/03/27 12:06:47;;;;;;;3.85;1.01;;;;;;;11.92;40.69;100207.50;2010630;80;20294;-66
2021/03/27 12:10:04;;;;;;;4.55;0.70;;;;;;;11.01;41.01;100199.19;2011384;80;20363;-66
2021/03/27 12:13:30;;;;;;;6.03;1.00;;;;;;;10.77;43.44;100176.47;2009755;80;21289;-66
2021/03/27 12:16:44;;;;;;;5.03;0.70;;;;;;;11.05;46.59;100187.94;2012200;77;20278;-66
2021/03/27 12:20:04;;;;;;;4.43;0.76;;;;;;;11.10;45.22;100188.84;2015658;80;20167;-66
2021/03/27 12:23:39;;;;;;;2.49;0.64;;;;;;;11.23;44.50;100193.25;2015382;80;20188;-66
2021/03/27 12:27:14;;;;;;;3.97;0.76;;;;;;;11.42;43.23;100210.69;2015204;80;20180;-66
2021/03/27 12:30:45;;;;;;;3.75;0.73;;;;;;;12.13;40.36;100192.78;2014163;77;20959;-67
2021/03/27 12:33:59;;;;;;;3.49;0.80;;;;;;;12.57;39.51;100195.47;2013154;80;20823;-66
2021/03/27 12:37:41;;;;;;;2.96;0.76;;;;;;;12.79;38.65;100194.59;2020985;80;20224;-65
2021/03/27 12:40:58;;;;;;;2.83;0.81;;;;;;;12.90;38.81;100205.84;2014076;80;20188;-66
2021/03/27 12:44:06;;;;;;;5.07;1.05;;;;;;;13.03;39.55;100198.91;2020758;80;20273;-65
2021/03/27 12:47:36;;;;;;;2.73;0.87;;;;;;;13.24;38.55;100208.44;2019938;77;20301;-66
2021/03/27 12:50:55;;;;;;;6.70;0.77;;;;;;;12.84;37.71;100198.06;2020669;80;20667;-67
2021/03/27 12:54:30;;;;;;;6.12;1.77;;;;;;;12.54;39.03;100218.88;2020123;80;20666;-68
2021/03/27 12:58:03;;;;;;;3.26;0.74;;;;;;;12.18;39.72;100209.28;2019821;80;20716;-66
2021/03/27 13:01:23;;;;;;;3.61;0.91;;;;;;;11.62;40.32;100204.72;2019310;77;20822;-68
2021/03/27 13:04:49;;;;;;;2.75;0.75;;;;;;;11.29;41.29;100219.28;2019629;80;20207;-68
2021/03/27 13:08:05;;;;;;;3.47;0.75;;;;;;;10.98;41.90;100220.84;2020898;80;20175;-68
2021/03/27 13:11:36;;;;;;;4.51;0.90;;;;;;;10.66;43.84;100224.91;2019980;80;20220;-67
2021/03/27 13:14:53;;;;;;;2.29;0.64;;;;;;;10.28;43.43;100233.19;2018804;80;20205;-69
2021/03/27 13:18:19;;;;;;;3.08;0.69;;;;;;;10.07;44.19;100236.41;2018736;77;21235;-67
2021/03/27 13:22:18;;;;;;;4.15;0.89;;;;;;;9.86;44.42;100233.53;2019065;80;20179;-68
2021/03/27 13:25:34;;;;;;;2.76;0.91;;;;;;;9.66;45.28;100249.72;2002231;80;20223;-67
2021/03/27 13:28:46;;;;;;;3.33;0.60;;;;;;;9.57;45.19;100251.34;2005248;80;20189;-67
2021/03/27 13:31:53;;;;;;;2.10;0.54;;;;;;;9.56;46.54;100255.66;2018604;77;35758;-68
2021/03/27 13:35:21;;;;;;;6.93;0.76;;;;;;;9.44;45.76;100258.06;2014816;80;21250;-66
2021/03/27 13:38:41;;;;;;;5.53;0.80;;;;;;;9.39;46.69;100254.56;2012707;80;20167;-67
2021/03/27 13:42:24;;;;;;;3.22;0.50;;;;;;;9.30;46.81;100263.06;2012605;80;20168;-67
2021/03/27 13:45:35;;;;;;;5.39;0.64;;;;;;;9.27;48.58;100275.09;2012578;78;20197;-67
2021/03/27 13:48:50;;;;;;;6.30;1.05;;;;;;;9.26;50.16;100278.53;2008886;80;20814;-67
2021/03/27 13:51:56;;;;;;;4.43;0.70;;;;;;;9.18;51.80;100282.75;2009727;80;20172;-67
2021/03/27 13:55:15;;;;;;;2.15;0.73;;;;;;;9.18;52.63;100293.13;2008346;80;20310;-67
2021/03/27 13:58:33;;;;;;;3.74;0.80;;;;;;;9.35;53.11;100282.16;2008705;80;20301;-68
2021/03/27 14:01:42;;;;;;;3.17;0.59;;;;;;;9.58;53.65;100279.88;2011190;77;20180;-68
2021/03/27 14:04:54;;;;;;;3.97;0.69;;;;;;;9.60;53.00;100280.78;2014062;80;20202;-68
2021/03/27 14:08:22;;;;;;;3.83;0.70;;;;;;;9.53;53.37;100278.94;2013847;80;20225;-68
2021/03/27 14:11:30;;;;;;;4.82;0.80;;;;;;;9.53;54.02;100294.50;2013938;80;20192;-68
2021/03/27 14:14:41;;;;;;;3.34;0.60;;;;;;;9.46;53.86;100284.88;2014824;80;20589;-67
2021/03/27 14:18:06;;;;;;;2.88;1.11;;;;;;;9.46;54.66;100277.09;2013384;77;21180;-67
2021/03/27 14:21:16;;;;;;;3.00;0.76;;;;;;;9.90;55.69;100287.22;2014305;80;20857;-68
2021/03/27 14:24:43;;;;;;;4.64;0.77;;;;;;;10.53;53.91;100278.44;2014080;80;20251;-67
2021/03/27 14:27:57;;;;;;;2.06;0.60;;;;;;;10.87;52.59;100272.72;2014441;80;20757;-67
2021/03/27 14:31:33;;;;;;;7.63;0.85;;;;;;;11.40;50.42;100272.22;2011518;80;20292;-67
2021/03/27 14:35:13;;;;;;;2.72;0.82;;;;;;;11.90;50.02;100273.41;2015423;80;20209;-68
2021/03/27 14:38:35;;;;;;;4.53;1.13;;;;;;;11.86;48.27;100267.31;2017071;80;20175;-68
2021/03/27 14:41:58;;;;;;;5.44;1.25;;;;;;;11.58;47.44;100268.88;2020644;80;20224;-69
2021/03/27 15:05:53;;;;;;;4.09;0.84;;;;;;;10.67;49.24;100287.25;2014284;80;20192;-67
2021/03/27 15:09:12;;;;;;;3.33;0.66;;;;;;;10.58;49.11;100282.81;2015323;80;20168;-67
2021/03/27 15:12:38;;;;;;;4.06;0.89;;;;;;;10.56;49.71;100279.34;2014467;80;20193;-69
2021/03/27 15:16:10;;;;;;;1.59;0.60;;;;;;;10.50;49.61;100281.00;2015522;80;20715;-67
2021/03/27 15:19:19;;;;;;;5.31;1.11;;;;;;;10.40;49.45;100286.94;2009235;77;31274;-68
2021/03/27 15:22:23;;;;;;;2.31;0.68;;;;;;;10.36;49.65;100277.41;2009757;80;20594;-68
2021/03/27 15:29:31;;;;;;;2.79;0.70;;;;;;;10.12;50.17;100281.44;2009982;80;20298;-68
2021/03/27 15:32:41;;;;;;;6.82;1.20;;;;;;;10.09;50.25;100285.72;2012535;77;20620;-68
2021/03/27 15:36:11;;;;;;;2.89;0.60;;;;;;;10.18;50.43;100289.28;2014088;80;20199;-67
2021/03/27 15:39:29;;;;;;;4.51;0.95;;;;;;;10.31;48.88;100290.34;2005829;80;20199;-67
2021/03/27 15:43:01;;;;;;;2.81;0.85;;;;;;;10.39;47.65;100287.81;2013921;80;21059;-66
2021/03/27 15:46:16;;;;;;;3.36;1.04;;;;;;;10.49;47.14;100308.72;2012221;77;22453;-67
2021/03/27 15:49:34;;;;;;;6.01;0.80;;;;;;;10.60;46.87;100290.66;2009279;80;20302;-66
2021/03/27 15:52:44;;;;;;;3.58;1.00;;;;;;;10.54;45.70;100303.56;2008837;80;20177;-66
2021/03/27 15:56:04;;;;;;;3.33;0.60;;;;;;;10.47;45.87;100300.03;2009244;80;21254;-67
2021/03/27 15:59:40;;;;;;;1.41;0.60;;;;;;;10.43;46.39;100306.06;2010006;80;20202;-67
2021/03/27 16:03:04;;;;;;;4.26;0.94;;;;;;;10.37;46.58;100315.47;2005567;78;20192;-67
2021/03/27 16:06:14;;;;;;;3.88;0.90;;;;;;;10.35;47.23;100312.00;2010642;80;20440;-68
2021/03/27 16:09:33;;;;;;;3.46;0.90;;;;;;;10.31;47.47;100312.81;2010881;80;20274;-67
2021/03/27 16:12:47;;;;;;;4.90;0.90;;;;;;;10.25;47.50;100330.06;2009414;80;20184;-67
2021/03/27 16:20:42;;;;;;;7.19;1.41;;;;;;;10.12;47.86;100335.94;2015913;80;20241;-68
2021/03/27 16:24:07;;;;;;;3.07;0.70;;;;;;;10.06;47.99;100338.47;2000637;80;20186;-68